Norridgewock, Maine
Current Conditions -  °F | °C
As of 4:55 AM on Saturday 25 Oct 2014 (Local Time) from KWVL Reporting Station
Few Clouds Few Clouds  
Wind Chill: 46°   Ceiling: Unl
Heat Index: 46°   Visibility: 10mi
Dew Point: 30°   Wind: 3mph
Humidity: 53%   Direction: 250°WSW
Pressure: 29.64"   Gusts: NA
Location:  44.71°N, 69.79°W
Report Text: KWVL 250855Z 25003KT 10SM FEW090 08/M01 A2964 RMK AO1 54000
Loading
Personal Weather Stations






























Interactive Weather Map
Tropical Storm Tracking
New forecast layout! Learn more

10-Day Weather Forecast

Advertisements
Track Severe Weather on mobile